Time;durP1;ratioP1;P1;durP2;ratioP2;P2;SDS_P1;SDS_P2;PMS_P1;PMS_P2;Temp;Humidity;BMP_temperature;BMP_pressure;BME280_temperature;BME280_humidity;BME280_pressure;Samples;Min_cycle;Max_cycle;Signal;HPM_P1;HPM_P2
2022/07/16 00:01:22;;;;;;;6.68;1.90;;;24.30;50.60;;;;;;5005981;28;20037;-57
2022/07/16 00:03:57;;;;;;;5.45;1.60;;;24.30;50.50;;;;;;5002400;28;20475;-57
2022/07/16 00:06:24;;;;;;;5.28;1.50;;;24.20;50.50;;;;;;5002983;28;20467;-58
2022/07/16 00:08:50;;;;;;;4.90;1.63;;;24.20;50.60;;;;;;5007437;28;20033;-57
2022/07/16 00:11:15;;;;;;;5.40;1.58;;;24.20;50.60;;;;;;5008106;28;20105;-58
2022/07/16 00:13:41;;;;;;;4.85;1.60;;;24.20;50.70;;;;;;4998542;28;20170;-57
2022/07/16 00:16:08;;;;;;;4.38;1.38;;;24.20;50.70;;;;;;5006015;28;20021;-57
2022/07/16 00:21:17;;;;;;;5.20;1.63;;;24.10;50.70;;;;;;5005708;28;20088;-57
2022/07/16 00:23:43;;;;;;;8.13;1.42;;;24.10;50.70;;;;;;5006665;28;20026;-58
2022/07/16 00:26:09;;;;;;;5.75;1.60;;;24.10;50.70;;;;;;5007462;28;20053;-57
2022/07/16 00:28:34;;;;;;;6.82;1.73;;;24.10;50.80;;;;;;5006514;28;20447;-57
2022/07/16 00:31:00;;;;;;;4.47;1.55;;;24.10;51.00;;;;;;5006622;28;20558;-57
2022/07/16 00:33:27;;;;;;;7.10;1.77;;;24.10;50.90;;;;;;5006028;28;20525;-57
2022/07/16 00:35:52;;;;;;;6.60;1.50;;;24.10;50.90;;;;;;5005787;28;20022;-58
2022/07/16 00:38:18;;;;;;;5.13;1.50;;;24.10;50.90;;;;;;5005778;28;20033;-57
2022/07/16 00:40:43;;;;;;;7.20;1.73;;;24.10;50.90;;;;;;5006854;28;20026;-57
2022/07/16 00:43:11;;;;;;;8.40;1.50;;;24.10;50.90;;;;;;5006692;28;20105;-58
2022/07/16 00:45:37;;;;;;;4.93;1.42;;;24.10;51.00;;;;;;5005447;28;20029;-58
2022/07/16 00:48:03;;;;;;;5.90;1.52;;;24.10;51.00;;;;;;5003749;28;20038;-57
2022/07/16 00:50:28;;;;;;;5.78;1.50;;;24.10;51.00;;;;;;5003919;28;20442;-57
2022/07/16 00:52:54;;;;;;;4.18;1.50;;;24.10;51.10;;;;;;5006789;28;20406;-57
2022/07/16 00:55:20;;;;;;;4.60;1.30;;;24.00;51.00;;;;;;5004310;28;20489;-57
2022/07/16 00:57:45;;;;;;;4.45;1.50;;;24.00;51.00;;;;;;5005551;28;20566;-57
2022/07/16 01:00:12;;;;;;;5.53;1.60;;;24.00;51.00;;;;;;5007427;28;20037;-57
2022/07/16 01:02:37;;;;;;;5.85;1.50;;;24.00;51.00;;;;;;5005585;28;20033;-58
2022/07/16 01:05:03;;;;;;;4.60;1.38;;;24.00;51.10;;;;;;5016968;28;20030;-58
2022/07/16 01:07:29;;;;;;;6.10;1.60;;;24.00;51.10;;;;;;5001616;28;20117;-57
2022/07/16 01:09:54;;;;;;;2.60;1.23;;;24.00;52.10;;;;;;4999923;28;20070;-57
2022/07/16 01:12:20;;;;;;;4.60;1.48;;;24.00;51.10;;;;;;4988329;28;20073;-57
2022/07/16 01:14:46;;;;;;;7.05;1.55;;;24.00;51.10;;;;;;5005833;28;20029;-57
2022/07/16 01:17:11;;;;;;;3.47;1.30;;;24.00;51.20;;;;;;5018038;28;20122;-58
2022/07/16 01:19:37;;;;;;;6.03;1.50;;;24.00;51.20;;;;;;5004343;28;20042;-57
2022/07/16 01:22:03;;;;;;;4.15;1.25;;;24.00;51.20;;;;;;5005310;28;20030;-57
2022/07/16 01:24:28;;;;;;;6.18;1.40;;;23.90;51.20;;;;;;5006208;28;20030;-58
2022/07/16 01:26:54;;;;;;;2.60;1.30;;;23.90;51.30;;;;;;5005437;28;20029;-57
2022/07/16 01:29:20;;;;;;;2.85;1.20;;;23.90;51.30;;;;;;5004661;28;20034;-58
2022/07/16 01:31:45;;;;;;;3.38;1.45;;;23.90;51.30;;;;;;5007083;28;20036;-58
2022/07/16 01:34:26;;;;;;;3.38;1.48;;;23.90;51.40;;;;;;5004234;28;20033;-57
2022/07/16 01:36:57;;;;;;;2.80;1.30;;;23.90;51.40;;;;;;4999548;28;20474;-58
2022/07/16 01:39:23;;;;;;;5.70;1.30;;;23.90;51.40;;;;;;5003027;28;20542;-57
2022/07/16 01:41:52;;;;;;;2.90;1.20;;;23.90;51.40;;;;;;5001869;28;20490;-57
2022/07/16 01:44:18;;;;;;;5.78;1.38;;;23.90;51.40;;;;;;5004737;28;20029;-57
2022/07/16 01:46:44;;;;;;;3.10;1.40;;;23.90;51.50;;;;;;5006295;28;20371;-58
2022/07/16 01:49:09;;;;;;;5.10;1.40;;;23.90;51.50;;;;;;5001267;28;20486;-57
2022/07/16 01:51:35;;;;;;;2.97;1.50;;;23.80;51.50;;;;;;5004199;28;20391;-58
2022/07/16 01:54:01;;;;;;;3.35;1.35;;;23.80;51.50;;;;;;5003311;28;20088;-57
2022/07/16 01:56:26;;;;;;;3.97;1.20;;;23.80;51.50;;;;;;5004820;28;20107;-57
2022/07/16 01:58:52;;;;;;;6.20;1.50;;;23.80;51.50;;;;;;5004367;28;20034;-57
2022/07/16 02:01:18;;;;;;;4.50;1.48;;;23.80;51.60;;;;;;5003551;28;20029;-57
2022/07/16 02:03:43;;;;;;;4.93;1.50;;;23.80;51.70;;;;;;5002159;28;20386;-57
2022/07/16 02:06:09;;;;;;;3.33;1.40;;;23.80;51.60;;;;;;5005462;28;20057;-58
2022/07/16 02:08:34;;;;;;;5.47;1.30;;;23.80;51.70;;;;;;5004667;28;20240;-57
2022/07/16 02:11:00;;;;;;;3.75;1.48;;;23.80;51.70;;;;;;5005655;28;20029;-57
2022/07/16 02:13:26;;;;;;;4.60;1.52;;;23.80;51.80;;;;;;5004831;28;20799;-57
2022/07/16 02:15:51;;;;;;;4.90;1.55;;;23.70;51.70;;;;;;5007965;28;20037;-57
2022/07/16 02:18:17;;;;;;;3.30;1.48;;;23.70;51.70;;;;;;5007356;28;20494;-57
2022/07/16 02:20:42;;;;;;;4.07;1.42;;;23.70;51.80;;;;;;5008361;28;20080;-57
2022/07/16 02:23:08;;;;;;;4.88;1.40;;;23.70;51.80;;;;;;5009099;28;20612;-57
2022/07/16 02:25:34;;;;;;;4.55;1.50;;;23.70;51.80;;;;;;5009391;28;20533;-57
2022/07/16 02:28:08;;;;;;;3.75;1.52;;;23.70;51.80;;;;;;5009118;28;20049;-57
2022/07/16 02:30:35;;;;;;;;;;;23.70;51.80;;;;;;5008321;28;20046;-57
2022/07/16 02:33:00;;;;;;;3.53;1.50;;;23.70;51.90;;;;;;5006788;28;19910;-58
2022/07/16 02:35:26;;;;;;;4.15;1.67;;;23.70;51.90;;;;;;5007411;28;20476;-58
2022/07/16 02:37:51;;;;;;;2.50;1.40;;;23.70;52.00;;;;;;5007009;28;20490;-57
2022/07/16 02:40:17;;;;;;;3.00;1.23;;;23.70;52.00;;;;;;5007593;28;20398;-58
2022/07/16 02:42:43;;;;;;;2.58;1.20;;;23.70;51.90;;;;;;5006717;28;20480;-57
2022/07/16 02:45:10;;;;;;;5.03;1.30;;;23.70;52.00;;;;;;5008408;28;20056;-57
2022/07/16 02:47:36;;;;;;;2.33;1.30;;;23.60;52.00;;;;;;5008041;28;20073;-58
2022/07/16 02:50:01;;;;;;;5.30;1.33;;;23.60;52.00;;;;;;5007531;28;21079;-57
2022/07/16 02:52:27;;;;;;;3.58;1.50;;;23.60;52.00;;;;;;5007809;28;20022;-57
2022/07/16 02:54:52;;;;;;;3.83;1.45;;;23.60;52.10;;;;;;5007383;28;20053;-57
2022/07/16 02:57:18;;;;;;;4.57;1.55;;;23.60;52.10;;;;;;5008518;28;20054;-57
2022/07/16 02:59:44;;;;;;;2.78;1.30;;;23.60;52.10;;;;;;5004736;28;20060;-58
2022/07/16 03:02:09;;;;;;;3.25;1.17;;;23.60;52.10;;;;;;5006176;28;20081;-57
2022/07/16 03:04:35;;;;;;;4.88;1.42;;;23.60;52.10;;;;;;5009603;28;20029;-58
2022/07/16 03:07:00;;;;;;;4.00;1.20;;;23.60;52.20;;;;;;5006834;28;21205;-58
2022/07/16 03:09:26;;;;;;;3.70;1.30;;;23.60;52.30;;;;;;5006607;28;20095;-58
2022/07/16 03:11:52;;;;;;;2.42;1.23;;;23.60;52.30;;;;;;5006606;28;20084;-58
2022/07/16 03:14:17;;;;;;;3.17;1.40;;;23.60;52.30;;;;;;5007445;28;20033;-58
2022/07/16 03:16:43;;;;;;;2.45;1.20;;;23.60;52.30;;;;;;5008831;28;20026;-57
2022/07/16 03:19:09;;;;;;;1.98;1.30;;;23.60;52.30;;;;;;5006402;28;20081;-58
2022/07/16 03:21:34;;;;;;;2.75;1.17;;;23.50;52.30;;;;;;5006576;28;20022;-57
2022/07/16 03:24:00;;;;;;;5.88;1.45;;;23.50;52.30;;;;;;5007251;28;20124;-57
2022/07/16 03:26:26;;;;;;;2.25;1.25;;;23.50;52.30;;;;;;5002078;28;20114;-58
2022/07/16 03:28:51;;;;;;;2.75;1.30;;;23.50;52.30;;;;;;5008370;28;20034;-58
2022/07/16 03:31:17;;;;;;;4.25;1.40;;;23.50;52.30;;;;;;5005946;28;20034;-58
2022/07/16 03:33:43;;;;;;;1.77;1.20;;;23.50;52.40;;;;;;5007052;28;20053;-58
2022/07/16 03:36:09;;;;;;;3.47;1.30;;;23.50;52.40;;;;;;5007302;28;20025;-58
2022/07/16 03:41:20;;;;;;;2.45;1.17;;;23.50;52.50;;;;;;5005909;28;20517;-57
2022/07/16 03:43:45;;;;;;;2.90;1.33;;;23.50;52.50;;;;;;5007371;28;20030;-58
2022/07/16 03:46:13;;;;;;;3.28;1.33;;;23.50;52.50;;;;;;5006954;28;20061;-58
2022/07/16 03:48:41;;;;;;;3.75;1.30;;;23.50;52.50;;;;;;5006854;28;20050;-58
2022/07/16 03:51:07;;;;;;;2.42;1.20;;;23.50;52.60;;;;;;5006306;28;20026;-58
2022/07/16 03:53:33;;;;;;;2.92;1.10;;;23.40;52.60;;;;;;5008046;28;20036;-58
2022/07/16 03:55:59;;;;;;;1.80;1.10;;;23.40;52.60;;;;;;5005764;28;20491;-58
2022/07/16 03:58:26;;;;;;;4.03;1.40;;;23.50;52.70;;;;;;5007201;28;20077;-58
2022/07/16 04:00:52;;;;;;;2.72;1.27;;;23.40;52.70;;;;;;5006123;28;20033;-58
2022/07/16 04:03:18;;;;;;;2.10;1.10;;;23.50;52.70;;;;;;5007089;28;20032;-57
2022/07/16 04:05:43;;;;;;;2.25;1.17;;;23.40;52.60;;;;;;5005112;28;20104;-57
2022/07/16 04:08:09;;;;;;;2.85;1.30;;;23.40;52.70;;;;;;5008526;28;20034;-58
2022/07/16 04:10:35;;;;;;;3.83;1.30;;;23.40;52.70;;;;;;5005851;28;20086;-58
2022/07/16 04:13:00;;;;;;;3.20;1.15;;;23.40;52.70;;;;;;5006772;28;20036;-58
2022/07/16 04:15:26;;;;;;;3.25;1.00;;;23.40;52.80;;;;;;5005823;28;20615;-58
2022/07/16 04:17:52;;;;;;;3.67;1.10;;;23.40;52.70;;;;;;5005542;28;20034;-58
2022/07/16 04:20:18;;;;;;;2.08;1.30;;;23.30;52.70;;;;;;5006499;28;20120;-58
2022/07/16 04:22:43;;;;;;;2.35;1.20;;;23.30;52.70;;;;;;5006967;28;20030;-57
2022/07/16 04:25:09;;;;;;;1.42;1.02;;;23.40;52.80;;;;;;5007705;28;20049;-58
2022/07/16 04:27:34;;;;;;;2.85;1.20;;;23.30;52.70;;;;;;5005433;28;20072;-58
2022/07/16 04:30:00;;;;;;;3.10;1.20;;;23.40;52.80;;;;;;5004079;28;20025;-58
2022/07/16 04:32:26;;;;;;;2.67;1.27;;;23.40;52.80;;;;;;5006339;28;20058;-58
2022/07/16 04:34:51;;;;;;;5.85;1.58;;;23.40;52.80;;;;;;5005647;28;20034;-58
2022/07/16 04:37:17;;;;;;;2.10;1.00;;;23.30;52.80;;;;;;5006321;28;20037;-58
2022/07/16 04:39:43;;;;;;;3.38;1.30;;;23.30;52.80;;;;;;5004880;28;20026;-58
2022/07/16 04:42:08;;;;;;;3.55;1.30;;;23.30;53.00;;;;;;5000952;28;20448;-58
2022/07/16 04:44:34;;;;;;;3.13;1.20;;;23.30;52.90;;;;;;5004448;28;20550;-58
2022/07/16 04:46:59;;;;;;;3.80;1.35;;;23.30;53.00;;;;;;5006516;28;20544;-58
2022/07/16 04:49:25;;;;;;;2.25;1.15;;;23.30;53.00;;;;;;5006975;28;20030;-58
2022/07/16 04:51:51;;;;;;;3.60;1.30;;;23.30;52.90;;;;;;5003831;28;20026;-58
2022/07/16 04:54:16;;;;;;;2.78;1.20;;;23.30;53.00;;;;;;5005779;28;20057;-57
2022/07/16 04:56:42;;;;;;;2.58;1.35;;;23.30;52.90;;;;;;5003963;28;20025;-58
2022/07/16 04:59:08;;;;;;;2.25;1.10;;;23.20;52.90;;;;;;5006478;28;20044;-58
2022/07/16 05:01:33;;;;;;;2.45;1.20;;;23.30;53.10;;;;;;5004634;28;20072;-57
2022/07/16 05:03:59;;;;;;;1.58;1.20;;;23.30;53.10;;;;;;5005711;28;20073;-58
2022/07/16 05:06:24;;;;;;;1.88;1.08;;;23.20;53.00;;;;;;5006607;28;20101;-57
2022/07/16 05:08:50;;;;;;;3.30;1.20;;;23.30;53.10;;;;;;5003515;28;20632;-58
2022/07/16 05:11:16;;;;;;;2.45;1.15;;;23.20;53.00;;;;;;5004847;28;20033;-57
2022/07/16 05:13:41;;;;;;;2.05;1.10;;;23.20;53.00;;;;;;5005479;28;20042;-58
2022/07/16 05:16:07;;;;;;;1.50;1.10;;;23.20;53.10;;;;;;5005436;28;20026;-58
2022/07/16 05:18:33;;;;;;;4.22;1.30;;;23.20;53.10;;;;;;5003942;28;20030;-57
2022/07/16 05:20:58;;;;;;;2.90;1.20;;;23.20;53.00;;;;;;5005163;28;20083;-57
2022/07/16 05:23:24;;;;;;;1.58;1.08;;;23.20;53.10;;;;;;5003352;28;20033;-57
2022/07/16 05:25:49;;;;;;;2.05;1.00;;;23.20;54.20;;;;;;5005071;28;20083;-59
2022/07/16 05:28:15;;;;;;;1.73;0.90;;;23.20;53.20;;;;;;5007249;28;20096;-58
2022/07/16 05:30:41;;;;;;;2.83;1.17;;;23.20;53.20;;;;;;5006039;28;20030;-57
2022/07/16 05:33:06;;;;;;;1.23;0.90;;;23.20;53.30;;;;;;5003254;28;20037;-58
2022/07/16 05:35:32;;;;;;;2.42;1.17;;;23.20;53.20;;;;;;5005425;28;20034;-57
2022/07/16 05:37:57;;;;;;;1.35;1.02;;;23.20;54.30;;;;;;5003051;28;20034;-57
2022/07/16 05:40:23;;;;;;;2.67;1.15;;;23.20;53.20;;;;;;5004720;28;20040;-58
2022/07/16 05:42:49;;;;;;;2.65;1.23;;;23.20;53.30;;;;;;5006637;28;20379;-58
2022/07/16 05:45:15;;;;;;;2.40;1.00;;;23.10;53.20;;;;;;5005315;28;20034;-57
2022/07/16 05:47:41;;;;;;;2.42;1.30;;;23.10;53.30;;;;;;5004500;28;20048;-58
2022/07/16 05:50:07;;;;;;;2.33;1.17;;;23.20;53.40;;;;;;5006536;28;20034;-58
2022/07/16 05:52:32;;;;;;;2.95;0.93;;;23.10;53.30;;;;;;5010058;28;20040;-58
2022/07/16 05:54:58;;;;;;;2.30;1.00;;;23.10;53.40;;;;;;5007717;28;20485;-58
2022/07/16 05:57:24;;;;;;;2.15;1.20;;;23.10;53.40;;;;;;5009190;28;20580;-58
2022/07/16 05:59:49;;;;;;;2.50;1.30;;;23.10;53.40;;;;;;5008643;28;20026;-58
2022/07/16 06:02:15;;;;;;;1.45;1.00;;;23.10;53.40;;;;;;5007970;28;20034;-57
2022/07/16 06:04:41;;;;;;;2.13;1.13;;;23.10;53.40;;;;;;5010316;28;20028;-57
2022/07/16 06:07:06;;;;;;;1.92;1.00;;;23.10;53.40;;;;;;5008912;28;20052;-58
2022/07/16 06:09:32;;;;;;;2.63;1.30;;;23.10;53.50;;;;;;5006916;28;20446;-57
2022/07/16 06:11:58;;;;;;;2.65;1.00;;;23.10;53.40;;;;;;5008814;28;20030;-57
2022/07/16 06:14:23;;;;;;;3.53;1.20;;;23.10;53.50;;;;;;5009820;28;20022;-58
2022/07/16 06:16:49;;;;;;;1.55;1.02;;;23.10;53.50;;;;;;5007807;28;20105;-57
2022/07/16 06:19:15;;;;;;;1.45;1.10;;;23.10;53.60;;;;;;5008276;28;20417;-57
2022/07/16 06:21:40;;;;;;;2.03;1.25;;;23.10;53.60;;;;;;5007915;28;20426;-58
2022/07/16 06:24:06;;;;;;;2.33;1.10;;;23.10;53.50;;;;;;5007126;28;20055;-57
2022/07/16 06:26:32;;;;;;;3.58;1.40;;;23.10;53.50;;;;;;5008387;28;20038;-58
2022/07/16 06:28:57;;;;;;;1.58;1.00;;;23.10;53.50;;;;;;5001847;28;20040;-58
2022/07/16 06:31:23;;;;;;;1.95;1.02;;;23.10;53.50;;;;;;5004079;28;20076;-58
2022/07/16 06:33:52;;;;;;;2.65;1.20;;;23.10;53.50;;;;;;5006340;28;20121;-58
2022/07/16 06:36:18;;;;;;;3.75;1.08;;;23.00;53.60;;;;;;5005221;28;20048;-58
2022/07/16 06:38:43;;;;;;;3.22;1.30;;;23.10;53.70;;;;;;5005481;28;20097;-58
2022/07/16 06:41:09;;;;;;;2.05;1.15;;;23.10;53.70;;;;;;5007051;28;20449;-58
2022/07/16 06:43:36;;;;;;;2.47;1.17;;;23.00;53.60;;;;;;5008818;28;20030;-58
2022/07/16 06:46:01;;;;;;;2.45;1.05;;;23.00;53.60;;;;;;5006831;28;20390;-58
2022/07/16 06:48:27;;;;;;;2.15;1.00;;;23.00;53.70;;;;;;5008176;28;20042;-58
2022/07/16 06:50:54;;;;;;;2.35;1.13;;;23.10;53.70;;;;;;5003858;28;20037;-58
2022/07/16 06:53:19;;;;;;;1.65;1.00;;;23.00;53.70;;;;;;5008692;28;20124;-58
2022/07/16 06:55:45;;;;;;;3.33;1.20;;;23.00;53.70;;;;;;5020465;28;20545;-58
2022/07/16 06:58:11;;;;;;;3.85;1.20;;;23.00;53.70;;;;;;5007953;28;20110;-58
2022/07/16 07:00:37;;;;;;;3.08;1.30;;;23.00;53.70;;;;;;5007298;28;20057;-58
2022/07/16 07:03:02;;;;;;;2.38;1.25;;;23.00;53.70;;;;;;5006774;28;20041;-58
2022/07/16 07:05:28;;;;;;;2.00;1.13;;;23.00;53.70;;;;;;5006757;28;20033;-58
2022/07/16 07:07:54;;;;;;;2.60;1.20;;;23.00;53.70;;;;;;5006474;28;20518;-58
2022/07/16 07:10:20;;;;;;;1.70;1.08;;;23.00;53.70;;;;;;5005528;28;20033;-58
2022/07/16 07:12:46;;;;;;;2.42;1.02;;;23.00;53.70;;;;;;5007459;28;20137;-58
2022/07/16 07:15:13;;;;;;;3.10;1.30;;;23.00;53.70;;;;;;5005005;28;20702;-58
2022/07/16 07:17:38;;;;;;;2.00;1.05;;;23.00;53.70;;;;;;5007414;28;20034;-58
2022/07/16 07:20:06;;;;;;;2.75;1.00;;;23.00;53.70;;;;;;4999206;28;20536;-58
2022/07/16 07:22:41;;;;;;;2.90;1.15;;;23.00;53.70;;;;;;5003294;28;20058;-58
2022/07/16 07:25:06;;;;;;;;;;;23.00;53.80;;;;;;5008488;28;20442;-58
2022/07/16 07:27:32;;;;;;;1.92;1.05;;;23.00;53.80;;;;;;5006246;28;20401;-58
2022/07/16 07:29:58;;;;;;;3.13;1.13;;;23.00;53.80;;;;;;5005694;28;20060;-58
2022/07/16 07:32:23;;;;;;;1.80;1.02;;;23.00;53.80;;;;;;5021704;28;20033;-58
2022/07/16 07:34:49;;;;;;;1.63;1.10;;;23.00;53.80;;;;;;5004936;28;20174;-58
2022/07/16 07:37:15;;;;;;;2.00;1.10;;;23.00;53.80;;;;;;5004116;28;20103;-58
2022/07/16 07:39:40;;;;;;;3.08;1.10;;;23.00;53.80;;;;;;5003892;28;20176;-58
2022/07/16 07:42:06;;;;;;;1.83;1.00;;;23.00;53.80;;;;;;5004179;28;20029;-58
2022/07/16 07:44:32;;;;;;;2.45;1.00;;;23.00;53.80;;;;;;5004247;28;20033;-58
2022/07/16 07:46:57;;;;;;;2.63;1.08;;;23.00;53.80;;;;;;5005458;28;20026;-58
2022/07/16 07:49:23;;;;;;;2.55;1.20;;;23.00;53.80;;;;;;5004330;28;20041;-58
2022/07/16 07:51:48;;;;;;;3.25;1.10;;;23.00;53.90;;;;;;5005723;28;20021;-58
2022/07/16 07:54:14;;;;;;;4.07;1.42;;;23.00;54.20;;;;;;5004526;28;20116;-58
2022/07/16 07:56:40;;;;;;;3.55;1.20;;;23.00;54.40;;;;;;5003251;28;20101;-58
2022/07/16 07:59:05;;;;;;;3.95;1.50;;;23.00;54.30;;;;;;5004654;28;20533;-58
2022/07/16 08:01:31;;;;;;;4.93;1.67;;;23.10;54.40;;;;;;5004016;28;20487;-58
2022/07/16 08:03:56;;;;;;;5.90;1.40;;;23.10;54.30;;;;;;5004663;28;20479;-58
2022/07/16 08:06:22;;;;;;;5.43;1.35;;;23.10;54.30;;;;;;4984417;28;20415;-58
2022/07/16 08:08:48;;;;;;;4.63;1.30;;;23.10;54.20;;;;;;5004942;28;20494;-58
2022/07/16 08:11:14;;;;;;;6.60;1.50;;;23.10;54.20;;;;;;5005815;28;20387;-58
2022/07/16 08:13:39;;;;;;;5.97;1.58;;;23.10;54.10;;;;;;5005778;28;20025;-58
2022/07/16 08:16:05;;;;;;;5.63;1.40;;;23.10;54.10;;;;;;5005332;28;20057;-58
2022/07/16 08:18:30;;;;;;;5.22;1.42;;;23.10;54.10;;;;;;5005415;28;20021;-58
2022/07/16 08:20:56;;;;;;;6.50;1.92;;;23.10;54.00;;;;;;5005968;28;20506;-58
2022/07/16 08:26:06;;;;;;;5.60;1.65;;;23.10;54.00;;;;;;5006344;28;20033;-58
2022/07/16 08:28:31;;;;;;;5.68;1.63;;;23.10;54.00;;;;;;5006442;28;20038;-58
2022/07/16 08:30:57;;;;;;;5.07;1.70;;;23.10;54.10;;;;;;5004928;28;20018;-58
2022/07/16 08:33:23;;;;;;;7.50;2.05;;;23.10;54.20;;;;;;5007340;28;20041;-58
2022/07/16 08:35:48;;;;;;;6.07;1.85;;;23.20;54.30;;;;;;5005928;28;20018;-58
2022/07/16 08:38:14;;;;;;;5.68;1.70;;;23.10;54.30;;;;;;5004540;28;20037;-58
2022/07/16 08:40:41;;;;;;;6.30;1.73;;;23.20;54.40;;;;;;5006204;28;20018;-58
2022/07/16 08:43:08;;;;;;;3.97;1.58;;;23.20;54.30;;;;;;5004518;28;20038;-58
2022/07/16 08:45:36;;;;;;;7.07;1.88;;;23.20;54.20;;;;;;5006502;28;20052;-58
2022/07/16 08:48:01;;;;;;;4.93;1.70;;;23.20;54.30;;;;;;5004649;28;20041;-58
2022/07/16 08:50:27;;;;;;;6.00;1.95;;;23.20;54.50;;;;;;5018305;28;20459;-58
2022/07/16 08:52:54;;;;;;;5.53;1.92;;;23.20;54.50;;;;;;5005568;28;20022;-58
2022/07/16 08:55:24;;;;;;;6.80;1.67;;;23.20;54.30;;;;;;5005284;28;20061;-57
2022/07/16 08:57:50;;;;;;;7.65;1.73;;;23.20;54.50;;;;;;5005535;28;20019;-58
2022/07/16 09:00:16;;;;;;;7.32;2.00;;;23.20;54.40;;;;;;5002119;28;20510;-58
2022/07/16 09:02:41;;;;;;;4.65;1.80;;;23.20;54.40;;;;;;5005068;28;20034;-58
2022/07/16 09:05:07;;;;;;;6.43;1.70;;;23.20;54.50;;;;;;5006981;28;20384;-58
2022/07/16 09:07:33;;;;;;;5.20;1.90;;;23.20;54.50;;;;;;5004572;28;20033;-59
2022/07/16 09:09:59;;;;;;;4.93;1.58;;;23.20;54.50;;;;;;5005627;28;20026;-58
2022/07/16 09:12:41;;;;;;;4.70;1.60;;;23.20;54.60;;;;;;5004523;28;20450;-58
2022/07/16 09:15:26;;;;;;;7.03;1.80;;;23.20;54.60;;;;;;5007607;28;20420;-58
2022/07/16 09:18:16;;;;;;;11.88;1.77;;;23.20;54.70;;;;;;5005123;28;20036;-58
2022/07/16 09:20:52;;;;;;;4.88;1.80;;;23.30;54.80;;;;;;5004362;28;20053;-58
2022/07/16 09:23:18;;;;;;;6.55;1.95;;;23.30;54.80;;;;;;5004533;28;20494;-58
2022/07/16 09:25:51;;;;;;;5.88;1.70;;;23.30;54.80;;;;;;5006469;28;20018;-58
2022/07/16 09:28:17;;;;;;;4.72;1.75;;;23.30;54.80;;;;;;5005535;28;20049;-58
2022/07/16 09:30:42;;;;;;;5.70;1.95;;;23.30;54.80;;;;;;5005471;28;20022;-58
2022/07/16 09:33:16;;;;;;;4.57;1.67;;;23.30;54.80;;;;;;5004020;28;20029;-58
2022/07/16 09:35:42;;;;;;;8.50;1.90;;;23.30;55.00;;;;;;5005541;28;20046;-58
2022/07/16 09:38:09;;;;;;;7.15;2.10;;;23.30;55.00;;;;;;5004451;28;20037;-58
2022/07/16 09:40:35;;;;;;;4.22;1.67;;;23.30;55.00;;;;;;5005280;28;20037;-58
2022/07/16 09:43:01;;;;;;;6.75;1.83;;;23.40;55.00;;;;;;5004357;28;20033;-58
2022/07/16 09:45:27;;;;;;;5.70;1.80;;;23.30;55.00;;;;;;5004454;28;20109;-58
2022/07/16 09:47:52;;;;;;;4.75;1.70;;;23.30;54.90;;;;;;5005521;28;20152;-58
2022/07/16 09:50:18;;;;;;;3.17;1.80;;;23.40;55.20;;;;;;5003046;28;20026;-58
2022/07/16 09:52:44;;;;;;;5.68;1.83;;;23.30;54.90;;;;;;5004732;28;20034;-58
2022/07/16 09:55:09;;;;;;;6.05;1.90;;;23.40;54.90;;;;;;5004907;28;20022;-58
2022/07/16 09:57:36;;;;;;;6.43;1.80;;;23.40;55.10;;;;;;5002973;28;20076;-58
2022/07/16 10:00:03;;;;;;;5.53;1.60;;;23.40;55.10;;;;;;5001681;28;20515;-58
2022/07/16 10:02:30;;;;;;;5.88;1.73;;;23.40;55.20;;;;;;5004071;28;20498;-58
2022/07/16 10:04:55;;;;;;;5.97;1.80;;;23.40;54.90;;;;;;5004743;28;20125;-58
2022/07/16 10:07:21;;;;;;;6.35;1.60;;;23.40;54.90;;;;;;5004103;28;20125;-58
2022/07/16 10:09:47;;;;;;;5.95;1.90;;;23.40;55.00;;;;;;5003667;28;20022;-58
2022/07/16 10:12:16;;;;;;;4.32;1.80;;;23.50;55.20;;;;;;5005951;28;20030;-58
2022/07/16 10:14:47;;;;;;;4.38;1.70;;;23.50;55.10;;;;;;5004980;28;20306;-58
2022/07/16 10:17:17;;;;;;;3.65;1.70;;;23.50;55.00;;;;;;5019363;28;20394;-58
2022/07/16 10:19:43;;;;;;;4.68;1.70;;;23.50;54.90;;;;;;5005632;28;20481;-58
2022/07/16 10:22:17;;;;;;;4.28;1.58;;;23.50;54.90;;;;;;5004019;28;20060;-58
2022/07/16 10:24:44;;;;;;;3.35;1.50;;;23.50;55.10;;;;;;5003732;28;20037;-58
2022/07/16 10:27:17;;;;;;;3.20;1.67;;;23.50;55.10;;;;;;5005330;28;20044;-58
2022/07/16 10:29:43;;;;;;;4.20;1.73;;;23.50;55.20;;;;;;5004600;28;20079;-58
2022/07/16 10:32:27;;;;;;;5.10;1.70;;;23.50;55.10;;;;;;5004459;28;20030;-58
2022/07/16 10:34:52;;;;;;;3.47;1.80;;;23.50;55.10;;;;;;5004712;28;20051;-58
2022/07/16 10:37:30;;;;;;;5.05;1.70;;;23.50;55.00;;;;;;5024812;28;20585;-58
2022/07/16 10:40:04;;;;;;;4.50;1.65;;;23.60;55.00;;;;;;5008982;28;20025;-58
2022/07/16 10:42:29;;;;;;;4.50;1.83;;;23.60;55.00;;;;;;5008008;28;20026;-58
2022/07/16 10:44:55;;;;;;;4.30;1.70;;;23.60;54.90;;;;;;5006980;28;20033;-58
2022/07/16 10:47:21;;;;;;;3.08;1.70;;;23.60;54.90;;;;;;5003069;28;20076;-58
2022/07/16 10:49:47;;;;;;;2.95;1.60;;;23.60;55.00;;;;;;5008646;28;20026;-58
2022/07/16 10:52:14;;;;;;;3.70;1.80;;;23.60;54.90;;;;;;5017021;28;20228;-58
2022/07/16 10:54:40;;;;;;;4.90;1.75;;;23.70;54.90;;;;;;5007793;28;20072;-58
2022/07/16 10:57:09;;;;;;;6.10;1.77;;;23.70;54.80;;;;;;5005449;28;20117;-58
2022/07/16 10:59:37;;;;;;;3.28;1.60;;;23.70;54.90;;;;;;5007808;28;20045;-58
2022/07/16 11:02:07;;;;;;;5.28;2.10;;;23.70;54.70;;;;;;5008382;28;20026;-58
2022/07/16 11:04:44;;;;;;;3.95;1.60;;;23.70;54.80;;;;;;5007780;28;20443;-58
2022/07/16 11:07:17;;;;;;;4.43;1.98;;;23.70;54.70;;;;;;5007096;28;20088;-58
2022/07/16 11:09:44;;;;;;;4.68;1.83;;;23.70;54.70;;;;;;5007527;28;20029;-58
2022/07/16 11:12:23;;;;;;;5.65;1.70;;;23.70;54.80;;;;;;5008639;28;20096;-58
2022/07/16 11:14:59;;;;;;;4.75;1.80;;;23.70;54.60;;;;;;5002574;28;20025;-58
2022/07/16 11:17:27;;;;;;;3.58;1.60;;;23.80;54.70;;;;;;5003484;28;20030;-58
2022/07/16 11:19:57;;;;;;;4.15;1.70;;;23.80;54.70;;;;;;5007505;28;20058;-58
2022/07/16 11:22:23;;;;;;;5.70;1.58;;;23.80;54.70;;;;;;5007351;28;20038;-58
2022/07/16 11:24:52;;;;;;;4.07;1.80;;;23.80;54.60;;;;;;5006076;28;20604;-58
2022/07/16 11:27:18;;;;;;;3.80;1.50;;;23.80;54.70;;;;;;5007016;28;20514;-58
2022/07/16 11:29:43;;;;;;;4.68;1.80;;;23.80;54.60;;;;;;5007109;28;20029;-58
2022/07/16 11:32:15;;;;;;;4.18;1.75;;;23.80;54.60;;;;;;5007073;28;20026;-58
2022/07/16 11:34:41;;;;;;;4.35;1.80;;;23.80;54.70;;;;;;5006066;28;20065;-58
2022/07/16 11:37:06;;;;;;;3.85;1.60;;;23.80;54.70;;;;;;5006416;28;20089;-58
2022/07/16 11:39:32;;;;;;;5.20;1.80;;;23.80;54.60;;;;;;5006641;28;20272;-58
2022/07/16 11:41:58;;;;;;;3.42;1.55;;;23.80;54.50;;;;;;5008438;28;20026;-58
2022/07/16 11:44:31;;;;;;;4.07;1.60;;;23.90;54.60;;;;;;5006126;28;20057;-58
2022/07/16 11:47:04;;;;;;;4.25;1.42;;;23.90;54.60;;;;;;5001220;28;20030;-58
2022/07/16 11:49:36;;;;;;;3.72;1.60;;;23.90;54.60;;;;;;5004653;28;20034;-58
2022/07/16 11:52:31;;;;;;;3.97;1.70;;;23.90;54.60;;;;;;5005482;28;20022;-58
2022/07/16 11:54:57;;;;;;;4.30;1.60;;;23.90;54.50;;;;;;5017477;28;20037;-58
2022/07/16 11:57:23;;;;;;;3.92;1.63;;;23.90;54.50;;;;;;5006030;28;20037;-58
2022/07/16 11:59:52;;;;;;;5.65;1.60;;;23.90;54.50;;;;;;5006999;28;20028;-58
2022/07/16 12:02:22;;;;;;;5.70;1.70;;;24.00;54.50;;;;;;5004212;28;20018;-58
2022/07/16 12:04:58;;;;;;;2.97;1.42;;;24.00;54.50;;;;;;5007190;28;20026;-58
2022/07/16 12:07:24;;;;;;;4.22;1.70;;;24.00;54.50;;;;;;5004530;28;20041;-58
2022/07/16 12:09:50;;;;;;;4.18;1.58;;;24.00;54.50;;;;;;5008213;28;20030;-58
2022/07/16 12:12:20;;;;;;;3.28;1.50;;;24.00;54.40;;;;;;5006087;28;20033;-58
2022/07/16 12:14:52;;;;;;;3.42;1.45;;;24.00;54.40;;;;;;5004991;28;20040;-58
2022/07/16 12:17:34;;;;;;;4.65;1.70;;;24.00;54.40;;;;;;5005190;28;20034;-58
2022/07/16 12:20:05;;;;;;;4.43;1.70;;;24.00;55.40;;;;;;5006442;28;20069;-58
2022/07/16 12:22:46;;;;;;;5.03;1.67;;;24.00;54.50;;;;;;5006012;28;20046;-58
2022/07/16 12:25:16;;;;;;;6.00;1.70;;;24.10;54.30;;;;;;5006071;28;20029;-58
2022/07/16 12:27:52;;;;;;;3.63;1.58;;;24.10;54.30;;;;;;5003956;28;20034;-58
2022/07/16 12:30:18;;;;;;;4.55;1.60;;;24.10;54.30;;;;;;5006944;28;20030;-58
2022/07/16 12:32:51;;;;;;;3.55;1.70;;;24.10;54.30;;;;;;5006195;28;20029;-58
2022/07/16 12:35:36;;;;;;;3.67;1.50;;;24.10;54.30;;;;;;5004678;28;20522;-58
2022/07/16 12:38:02;;;;;;;;;;;24.10;54.30;;;;;;5008069;28;20060;-58
2022/07/16 12:40:28;;;;;;;4.15;1.75;;;24.10;54.30;;;;;;5005837;28;19913;-58
2022/07/16 12:42:54;;;;;;;2.95;1.60;;;24.10;54.30;;;;;;5006497;28;20097;-58
2022/07/16 12:45:19;;;;;;;3.50;1.70;;;24.20;54.30;;;;;;5006178;28;20029;-58
2022/07/16 12:47:45;;;;;;;3.33;1.63;;;24.20;54.30;;;;;;5005804;28;20044;-58
2022/07/16 12:50:10;;;;;;;3.85;1.50;;;24.20;55.30;;;;;;5003465;28;20034;-58
2022/07/16 12:52:36;;;;;;;3.20;1.50;;;24.20;54.30;;;;;;5004304;28;20105;-58
2022/07/16 13:00:31;;;;;;;5.35;1.58;;;24.30;54.10;;;;;;5003450;28;20084;-58